createdAt,value
2018-01-21T00:01:30.024Z,99.70
2018-01-21T00:03:58.013Z,99.80
2018-01-21T00:06:25.922Z,99.90
2018-01-21T00:08:53.847Z,99.80
2018-01-21T00:11:21.845Z,99.90
2018-01-21T00:13:49.915Z,99.90
2018-01-21T00:16:17.781Z,99.90
2018-01-21T00:18:45.611Z,99.90
2018-01-21T00:21:13.793Z,99.90
2018-01-21T00:23:41.637Z,99.90
2018-01-21T00:26:10.346Z,99.90
2018-01-21T00:28:38.346Z,99.90
2018-01-21T00:31:06.315Z,99.80
2018-01-21T00:33:34.283Z,99.70
2018-01-21T00:36:02.311Z,99.70
2018-01-21T00:38:30.240Z,99.70
2018-01-21T00:40:58.191Z,99.70
2018-01-21T00:43:26.265Z,99.70
2018-01-21T00:45:54.393Z,99.70
2018-01-21T00:48:22.306Z,99.70
2018-01-21T00:50:50.478Z,99.80
2018-01-21T00:53:18.518Z,99.90
2018-01-21T00:55:46.419Z,99.90
2018-01-21T00:58:14.388Z,99.90
2018-01-21T01:00:42.255Z,99.90
2018-01-21T01:03:10.190Z,99.90
2018-01-21T01:05:38.141Z,99.90
2018-01-21T01:08:06.779Z,99.90
2018-01-21T01:10:34.644Z,99.80
2018-01-21T01:13:02.718Z,99.80
2018-01-21T01:15:30.520Z,99.80
2018-01-21T01:17:59.500Z,99.70
2018-01-21T01:20:27.442Z,99.70
2018-01-21T01:22:55.316Z,99.40
2018-01-21T01:25:23.381Z,99.40
2018-01-21T01:27:51.530Z,99.30
2018-01-21T01:30:19.822Z,99.30
2018-01-21T01:32:47.617Z,99.30
2018-01-21T01:35:15.667Z,99.20
2018-01-21T01:37:43.535Z,99.40
2018-01-21T01:40:11.401Z,99.40
2018-01-21T01:42:39.286Z,99.50
2018-01-21T01:45:07.136Z,99.60
2018-01-21T01:47:35.002Z,99.60
2018-01-21T01:50:03.074Z,99.80
2018-01-21T01:52:30.947Z,99.70
2018-01-21T01:54:58.807Z,99.60
2018-01-21T01:57:26.690Z,99.60
2018-01-21T01:59:54.559Z,99.70
2018-01-21T02:02:22.416Z,99.60
2018-01-21T02:04:50.486Z,99.40
2018-01-21T02:07:18.448Z,99.30
2018-01-21T02:09:46.326Z,99.20
2018-01-21T02:12:14.286Z,99.10
2018-01-21T02:14:42.162Z,98.90
2018-01-21T02:17:10.026Z,98.80
2018-01-21T02:19:37.998Z,98.70
2018-01-21T02:22:05.863Z,98.70
2018-01-21T02:24:33.822Z,98.70
2018-01-21T02:27:02.846Z,98.80
2018-01-21T02:29:31.605Z,98.60
2018-01-21T02:31:59.386Z,98.60
2018-01-21T02:34:27.943Z,99.00
2018-01-21T02:36:55.821Z,99.00
2018-01-21T02:39:23.700Z,99.00
2018-01-21T02:41:51.564Z,99.10
2018-01-21T02:44:19.421Z,99.20
2018-01-21T02:46:47.339Z,99.30
2018-01-21T02:49:16.026Z,99.60
2018-01-21T02:51:44.679Z,99.90
2018-01-21T02:54:12.529Z,99.80
2018-01-21T02:56:40.435Z,99.90
2018-01-21T02:59:09.245Z,99.90
2018-01-21T03:01:37.873Z,99.90
2018-01-21T03:04:05.736Z,99.90
2018-01-21T03:06:33.601Z,99.90
2018-01-21T03:09:01.469Z,99.90
2018-01-21T03:11:29.439Z,99.90
2018-01-21T03:13:57.407Z,99.90
2018-01-21T03:16:25.274Z,99.90
2018-01-21T03:18:53.202Z,99.90
2018-01-21T03:21:21.110Z,99.90
2018-01-21T03:23:48.943Z,99.90
2018-01-21T03:26:16.810Z,99.90
2018-01-21T03:28:44.651Z,99.90
2018-01-21T03:31:13.303Z,99.90
2018-01-21T03:33:41.281Z,99.90
2018-01-21T03:36:09.130Z,99.90
2018-01-21T03:38:37.536Z,99.90
2018-01-21T03:41:05.481Z,99.90
2018-01-21T03:43:33.458Z,99.90
2018-01-21T03:46:01.322Z,99.90
2018-01-21T03:48:29.284Z,99.90
2018-01-21T03:50:57.150Z,99.90
2018-01-21T03:53:25.028Z,99.90
2018-01-21T03:55:53.030Z,99.90
2018-01-21T03:58:21.683Z,99.80
2018-01-21T04:00:49.443Z,99.80
2018-01-21T04:03:17.406Z,99.70
2018-01-21T04:05:45.487Z,99.70
2018-01-21T04:08:13.295Z,99.70
2018-01-21T04:10:42.034Z,99.60
2018-01-21T04:13:10.012Z,99.60
2018-01-21T04:15:38.082Z,99.70
2018-01-21T04:18:06.462Z,99.80
2018-01-21T04:20:34.422Z,99.90
2018-01-21T04:23:02.502Z,99.90
2018-01-21T04:25:30.359Z,99.90
2018-01-21T04:27:58.143Z,99.90
2018-01-21T04:30:26.811Z,99.90
2018-01-21T04:32:54.677Z,99.90
2018-01-21T04:35:22.853Z,99.90
2018-01-21T04:37:50.925Z,99.90
2018-01-21T04:40:18.791Z,99.90
2018-01-21T04:42:46.711Z,99.90
2018-01-21T04:45:15.444Z,99.90
2018-01-21T04:47:43.415Z,99.90
2018-01-21T04:50:11.280Z,99.90
2018-01-21T04:52:39.201Z,99.90
2018-01-21T04:55:07.974Z,99.90
2018-01-21T04:57:36.506Z,99.90
2018-01-21T05:00:04.323Z,99.90
2018-01-21T05:02:32.911Z,99.90
2018-01-21T05:05:01.557Z,99.90
2018-01-21T05:07:29.421Z,99.90
2018-01-21T05:09:57.334Z,99.90
2018-01-21T05:12:25.975Z,99.90
2018-01-21T05:14:53.789Z,99.90
2018-01-21T05:17:22.426Z,99.90
2018-01-21T05:19:50.303Z,99.90
2018-01-21T05:22:18.160Z,99.90
2018-01-21T05:24:46.033Z,99.90
2018-01-21T05:27:14.000Z,99.90
2018-01-21T05:29:42.069Z,99.90
2018-01-21T05:32:10.045Z,99.90
2018-01-21T05:34:37.913Z,99.90
2018-01-21T05:37:05.778Z,99.90
2018-01-21T05:39:33.740Z,99.90
2018-01-21T05:42:01.607Z,99.90
2018-01-21T05:44:29.475Z,99.90
2018-01-21T05:46:57.353Z,99.90
2018-01-21T05:49:25.629Z,99.90
2018-01-21T05:51:53.526Z,99.90
2018-01-21T05:54:22.285Z,99.90
2018-01-21T05:56:50.138Z,99.90
2018-01-21T05:59:18.006Z,99.90
2018-01-21T06:01:46.197Z,99.90
2018-01-21T06:04:14.046Z,99.90
2018-01-21T06:06:42.015Z,99.90
2018-01-21T06:09:09.882Z,99.90
2018-01-21T06:11:37.760Z,99.90
2018-01-21T06:14:05.820Z,99.90
2018-01-21T06:16:33.696Z,99.90
2018-01-21T06:19:01.666Z,99.90
2018-01-21T06:21:29.524Z,99.90
2018-01-21T06:23:57.614Z,99.90
2018-01-21T06:26:25.462Z,99.90
2018-01-21T06:28:53.228Z,99.90
2018-01-21T06:31:21.150Z,99.90
2018-01-21T06:33:49.073Z,99.90
2018-01-21T06:36:16.903Z,99.90
2018-01-21T06:38:44.970Z,99.90
2018-01-21T06:41:12.766Z,99.90
2018-01-21T06:43:40.644Z,99.90
2018-01-21T06:46:08.614Z,99.90
2018-01-21T06:48:36.573Z,99.90
2018-01-21T06:51:05.105Z,99.90
2018-01-21T06:53:33.204Z,99.90
2018-01-21T06:56:01.122Z,99.90
2018-01-21T06:58:28.906Z,99.90
2018-01-21T07:00:56.987Z,99.90
2018-01-21T07:03:25.518Z,99.90
2018-01-21T07:05:53.338Z,99.90
2018-01-21T07:08:21.210Z,99.90
2018-01-21T07:10:49.071Z,99.90
2018-01-21T07:13:16.827Z,99.90
2018-01-21T07:15:44.721Z,99.90
2018-01-21T07:18:12.459Z,99.90
2018-01-21T07:20:40.932Z,99.80
2018-01-21T07:23:10.081Z,99.70
2018-01-21T07:25:38.113Z,99.70
2018-01-21T07:28:06.749Z,99.60
2018-01-21T07:30:34.578Z,99.60
2018-01-21T07:33:02.580Z,99.50
2018-01-21T07:35:30.755Z,99.30
2018-01-21T07:37:58.751Z,99.40
2018-01-21T07:40:27.736Z,99.70
2018-01-21T07:42:55.486Z,99.90
2018-01-21T07:45:23.382Z,99.40
2018-01-21T07:47:53.084Z,98.70
2018-01-21T07:50:21.854Z,98.20
2018-01-21T07:52:51.521Z,98.20
2018-01-21T07:55:21.913Z,98.90
2018-01-21T07:57:50.159Z,98.50
2018-01-21T08:00:20.562Z,98.80
2018-01-21T08:02:49.252Z,99.20
2018-01-21T08:05:19.619Z,99.20
2018-01-21T08:07:48.190Z,98.50
2018-01-21T08:10:16.611Z,98.50
2018-01-21T08:12:50.465Z,98.20
2018-01-21T08:15:19.293Z,98.30
2018-01-21T08:17:50.153Z,97.50
2018-01-21T08:20:19.408Z,97.50
2018-01-21T08:22:47.234Z,97.40
2018-01-21T08:25:14.999Z,97.40
2018-01-21T08:27:44.948Z,97.10
2018-01-21T08:30:14.035Z,96.80
2018-01-21T08:32:46.335Z,96.80
2018-01-21T08:35:20.113Z,96.70
2018-01-21T08:37:54.979Z,96.80
2018-01-21T08:40:28.646Z,96.20
2018-01-21T08:42:56.772Z,95.90
2018-01-21T08:45:25.614Z,95.40
2018-01-21T08:47:54.153Z,95.80
2018-01-21T08:50:22.172Z,95.80
2018-01-21T08:52:50.611Z,95.00
2018-01-21T08:55:19.210Z,94.70
2018-01-21T08:57:46.984Z,94.60
2018-01-21T09:00:14.999Z,94.50
2018-01-21T09:02:43.619Z,94.40
2018-01-21T09:05:11.558Z,94.40
2018-01-21T09:07:40.562Z,93.70
2018-01-21T09:10:08.561Z,93.60
2018-01-21T09:12:36.475Z,93.60
2018-01-21T09:15:04.313Z,93.40
2018-01-21T09:17:32.220Z,93.10
2018-01-21T09:20:00.892Z,92.80
2018-01-21T09:22:28.782Z,92.80
2018-01-21T09:25:02.561Z,92.00
2018-01-21T09:27:30.360Z,91.80
2018-01-21T09:29:58.890Z,90.70
2018-01-21T09:32:26.657Z,90.70
2018-01-21T09:34:54.494Z,90.10
2018-01-21T09:37:22.231Z,89.70
2018-01-21T09:39:50.151Z,89.50
2018-01-21T09:42:18.029Z,88.20
2018-01-21T09:44:45.818Z,87.70
2018-01-21T09:47:14.373Z,86.20
2018-01-21T09:49:42.233Z,86.10
2018-01-21T09:52:10.047Z,84.90
2018-01-21T09:54:38.683Z,84.80
2018-01-21T09:57:06.452Z,84.70
2018-01-21T09:59:34.376Z,81.00
2018-01-21T10:02:02.489Z,80.80
2018-01-21T10:04:30.356Z,81.40
2018-01-21T10:06:58.372Z,80.20
2018-01-21T10:09:27.078Z,78.30
2018-01-21T10:11:55.083Z,78.30
2018-01-21T10:14:23.053Z,77.10
2018-01-21T10:16:51.021Z,77.10
2018-01-21T10:19:19.085Z,78.20
2018-01-21T10:21:47.165Z,76.90
2018-01-21T10:24:15.031Z,77.30
2018-01-21T10:26:43.001Z,79.60
2018-01-21T10:29:10.878Z,81.80
2018-01-21T10:31:38.604Z,82.80
2018-01-21T10:34:06.323Z,83.90
2018-01-21T10:36:34.091Z,85.00
2018-01-21T10:39:01.872Z,83.90
2018-01-21T10:41:30.382Z,86.10
2018-01-21T10:43:58.123Z,86.10
2018-01-21T10:46:26.723Z,88.20
2018-01-21T10:48:54.467Z,88.20
2018-01-21T10:51:22.975Z,84.10
2018-01-21T10:53:50.784Z,84.00
2018-01-21T10:56:18.534Z,81.60
2018-01-21T10:58:46.383Z,80.60
2018-01-21T11:01:14.191Z,76.10
2018-01-21T11:03:42.026Z,76.40
2018-01-21T11:06:09.761Z,85.70
2018-01-21T11:08:37.502Z,81.70
2018-01-21T11:11:06.047Z,69.80
2018-01-21T11:13:33.748Z,69.70
2018-01-21T11:16:02.288Z,67.00
2018-01-21T11:18:30.049Z,67.00
2018-01-21T11:20:58.545Z,65.30
2018-01-21T11:23:26.285Z,65.20
2018-01-21T11:25:54.055Z,65.10
2018-01-21T11:28:21.824Z,62.90
2018-01-21T11:30:49.676Z,60.70
2018-01-21T11:33:17.471Z,60.70
2018-01-21T11:35:45.215Z,59.50
2018-01-21T11:38:13.007Z,59.30
2018-01-21T11:40:41.511Z,58.70
2018-01-21T11:43:10.114Z,58.30
2018-01-21T11:45:37.868Z,58.30
2018-01-21T11:48:05.632Z,58.40
2018-01-21T11:50:34.256Z,57.30
2018-01-21T11:53:02.078Z,57.30
2018-01-21T11:55:29.840Z,55.90
2018-01-21T11:57:59.516Z,54.40
2018-01-21T12:00:27.252Z,54.40
2018-01-21T12:02:54.990Z,53.60
2018-01-21T12:05:22.763Z,53.10
2018-01-21T12:07:50.593Z,53.00
2018-01-21T12:10:18.451Z,53.30
2018-01-21T12:12:46.147Z,52.10
2018-01-21T12:15:13.922Z,50.80
2018-01-21T12:17:41.783Z,48.20
2018-01-21T12:20:09.790Z,46.50
2018-01-21T12:22:37.659Z,46.30
2018-01-21T12:25:05.406Z,46.20
2018-01-21T12:27:33.169Z,45.20
2018-01-21T12:30:00.933Z,45.00
2018-01-21T12:32:28.693Z,42.10
2018-01-21T12:34:56.589Z,40.10
2018-01-21T12:37:24.492Z,40.60
2018-01-21T12:39:53.082Z,39.60
2018-01-21T12:42:21.647Z,39.60
2018-01-21T12:44:49.439Z,39.60
2018-01-21T12:47:17.990Z,38.50
2018-01-21T12:49:45.881Z,38.40
2018-01-21T12:52:14.571Z,38.90
2018-01-21T12:54:43.104Z,38.40
2018-01-21T12:57:10.881Z,38.40
2018-01-21T12:59:38.752Z,38.70
2018-01-21T13:02:06.539Z,38.20
2018-01-21T13:04:35.088Z,39.30
2018-01-21T13:07:02.944Z,39.30
2018-01-21T13:09:30.763Z,39.50
2018-01-21T13:11:59.308Z,38.90
2018-01-21T13:14:27.020Z,38.90
2018-01-21T13:16:54.837Z,38.40
2018-01-21T13:19:22.614Z,41.40
2018-01-21T13:21:50.479Z,39.40
2018-01-21T13:24:18.273Z,37.50
2018-01-21T13:26:46.127Z,40.90
2018-01-21T13:29:14.627Z,41.40
2018-01-21T13:31:42.442Z,41.40
2018-01-21T13:34:10.231Z,43.00
2018-01-21T13:36:38.176Z,43.10
2018-01-21T13:39:06.055Z,42.80
2018-01-21T13:41:33.851Z,41.50
2018-01-21T13:44:01.638Z,42.80
2018-01-21T13:46:29.531Z,42.70
2018-01-21T13:48:57.395Z,42.50
2018-01-21T13:51:25.320Z,43.40
2018-01-21T13:53:53.929Z,42.80
2018-01-21T13:56:21.661Z,42.80
2018-01-21T13:58:50.229Z,41.20
2018-01-21T14:01:18.104Z,41.20
2018-01-21T14:03:46.688Z,41.50
2018-01-21T14:06:15.231Z,42.00
2018-01-21T14:08:42.991Z,41.90
2018-01-21T14:11:10.722Z,42.30
2018-01-21T14:13:38.536Z,42.70
2018-01-21T14:16:06.244Z,41.10
2018-01-21T14:18:34.729Z,41.00
2018-01-21T14:21:02.549Z,41.00
2018-01-21T14:23:31.320Z,40.90
2018-01-21T14:25:59.173Z,43.10
2018-01-21T14:28:26.916Z,43.10
2018-01-21T14:30:54.737Z,43.20
2018-01-21T14:33:22.595Z,42.10
2018-01-21T14:35:50.491Z,42.60
2018-01-21T14:38:19.445Z,43.40
2018-01-21T14:40:47.426Z,43.40
2018-01-21T14:43:15.470Z,44.10
2018-01-21T14:45:43.359Z,44.10
2018-01-21T14:48:11.224Z,45.00
2018-01-21T14:50:39.216Z,44.30
2018-01-21T14:53:07.122Z,44.30
2018-01-21T14:55:36.200Z,45.00
2018-01-21T14:58:08.415Z,45.00
2018-01-21T15:00:36.840Z,45.80
2018-01-21T15:03:04.686Z,45.90
2018-01-21T15:05:32.579Z,45.90
2018-01-21T15:08:00.467Z,45.80
2018-01-21T15:10:29.152Z,50.10
2018-01-21T15:12:58.020Z,47.90
2018-01-21T15:15:25.870Z,48.00
2018-01-21T15:17:53.764Z,48.40
2018-01-21T15:20:22.906Z,46.20
2018-01-21T15:22:51.589Z,45.20
2018-01-21T15:25:19.488Z,45.20
2018-01-21T15:27:47.452Z,45.70
2018-01-21T15:30:15.427Z,45.40
2018-01-21T15:32:43.287Z,45.70
2018-01-21T15:35:11.161Z,46.10
2018-01-21T15:37:39.194Z,45.70
2018-01-21T15:40:07.092Z,45.80
2018-01-21T15:42:35.049Z,46.00
2018-01-21T15:45:03.106Z,46.00
2018-01-21T15:47:31.114Z,45.80
2018-01-21T15:50:00.854Z,46.50
2018-01-21T15:52:32.656Z,46.30
2018-01-21T15:55:02.533Z,46.80
2018-01-21T15:57:31.178Z,46.70
2018-01-21T16:00:00.764Z,46.30
2018-01-21T16:02:28.696Z,46.40
2018-01-21T16:04:57.198Z,47.00
2018-01-21T16:07:27.040Z,47.10
2018-01-21T16:09:55.127Z,46.50
2018-01-21T16:12:24.786Z,46.70
2018-01-21T16:14:53.118Z,46.50
2018-01-21T16:17:23.916Z,46.20
2018-01-21T16:19:52.748Z,46.40
2018-01-21T16:22:23.896Z,46.30
2018-01-21T16:24:55.616Z,45.70
2018-01-21T16:27:23.716Z,45.70
2018-01-21T16:29:52.679Z,44.70
2018-01-21T16:32:20.906Z,44.70
2018-01-21T16:34:51.222Z,47.60
2018-01-21T16:37:32.057Z,47.60
2018-01-21T16:40:04.089Z,45.60
2018-01-21T16:42:33.915Z,45.20
2018-01-21T16:45:03.686Z,45.20
2018-01-21T16:47:31.966Z,47.60
2018-01-21T16:50:04.274Z,49.00
2018-01-21T16:52:36.628Z,49.50
2018-01-21T16:55:06.305Z,49.50
2018-01-21T16:57:34.955Z,49.20
2018-01-21T17:00:04.262Z,49.70
2018-01-21T17:02:34.145Z,50.30
2018-01-21T17:05:02.755Z,50.30
2018-01-21T17:07:31.900Z,51.70
2018-01-21T17:10:00.742Z,51.40
2018-01-21T17:12:30.542Z,51.60
2018-01-21T17:14:59.263Z,51.70
2018-01-21T17:17:30.717Z,51.70
2018-01-21T17:20:00.679Z,51.40
2018-01-21T17:22:31.302Z,51.70
2018-01-21T17:25:01.708Z,52.90
2018-01-21T17:27:32.955Z,52.80
2018-01-21T17:30:01.193Z,52.30
2018-01-21T17:32:29.266Z,51.80
2018-01-21T17:35:01.205Z,52.20
2018-01-21T17:37:31.771Z,53.00
2018-01-21T17:40:00.293Z,53.00
2018-01-21T17:42:28.409Z,52.20
2018-01-21T17:44:59.228Z,52.10
2018-01-21T17:47:28.561Z,52.30
2018-01-21T17:49:56.838Z,52.30
2018-01-21T17:52:27.408Z,52.70
2018-01-21T17:54:56.833Z,53.30
2018-01-21T17:57:31.113Z,54.10
2018-01-21T17:59:59.671Z,53.90
2018-01-21T18:02:30.998Z,54.60
2018-01-21T18:04:59.432Z,54.60
2018-01-21T18:07:27.285Z,55.00
2018-01-21T18:09:55.890Z,54.90
2018-01-21T18:12:27.096Z,54.00
2018-01-21T18:14:57.822Z,53.90
2018-01-21T18:17:26.256Z,54.00
2018-01-21T18:19:56.219Z,53.50
2018-01-21T18:22:26.852Z,53.40
2018-01-21T18:24:57.498Z,53.40
2018-01-21T18:27:30.073Z,53.90
2018-01-21T18:30:02.058Z,53.80
2018-01-21T18:32:37.272Z,54.90
2018-01-21T18:35:09.635Z,54.60
2018-01-21T18:37:38.496Z,54.50
2018-01-21T18:40:07.455Z,54.10
2018-01-21T18:42:41.862Z,53.70
2018-01-21T18:45:14.762Z,52.90
2018-01-21T18:47:44.866Z,53.00
2018-01-21T18:50:12.962Z,53.00
2018-01-21T18:52:40.829Z,53.80
2018-01-21T18:55:08.628Z,54.50
2018-01-21T18:57:37.274Z,55.80
2018-01-21T19:00:05.880Z,56.30
2018-01-21T19:02:33.694Z,56.30
2018-01-21T19:05:01.498Z,56.80
2018-01-21T19:07:29.329Z,55.60
2018-01-21T19:09:57.266Z,54.80
2018-01-21T19:12:25.930Z,56.90
2018-01-21T19:14:53.852Z,56.90
2018-01-21T19:17:22.188Z,57.60
2018-01-21T19:19:50.305Z,57.80
2018-01-21T19:22:19.240Z,58.60
2018-01-21T19:24:47.204Z,59.10
2018-01-21T19:27:15.379Z,58.70
2018-01-21T19:29:44.348Z,59.50
2018-01-21T19:32:12.750Z,59.40
2018-01-21T19:34:44.645Z,59.80
2018-01-21T19:37:13.208Z,60.70
2018-01-21T19:42:57.839Z,62.70
2018-01-21T19:45:26.061Z,62.60
2018-01-21T19:47:53.938Z,62.30
2018-01-21T19:50:22.071Z,63.20
2018-01-21T19:52:49.949Z,63.60
2018-01-21T19:55:18.137Z,64.20
2018-01-21T19:57:46.583Z,64.30
2018-01-21T20:00:15.419Z,62.20
2018-01-21T20:02:43.480Z,62.10
2018-01-21T20:05:12.725Z,65.00
2018-01-21T20:07:42.455Z,65.00
2018-01-21T20:10:10.353Z,63.30
2018-01-21T20:12:42.021Z,64.60
2018-01-21T20:15:10.084Z,64.60
2018-01-21T20:17:37.892Z,66.80
2018-01-21T20:20:08.031Z,68.00
2018-01-21T20:22:35.935Z,68.00
2018-01-21T20:25:03.755Z,68.20
2018-01-21T20:27:31.754Z,68.10
2018-01-21T20:29:59.694Z,67.40
2018-01-21T20:32:27.502Z,66.90
2018-01-21T20:34:55.403Z,66.90
2018-01-21T20:37:24.058Z,65.50
2018-01-21T20:39:51.982Z,65.50
2018-01-21T20:42:25.546Z,66.20
2018-01-21T20:44:53.416Z,67.10
2018-01-21T20:47:21.274Z,64.70
2018-01-21T20:49:49.141Z,66.50
2018-01-21T20:52:22.682Z,66.20
2018-01-21T20:54:51.703Z,65.00
2018-01-21T20:57:19.694Z,64.90
2018-01-21T20:59:47.535Z,66.80
2018-01-21T21:02:15.452Z,67.70
2018-01-21T21:04:44.100Z,68.80
2018-01-21T21:07:12.138Z,68.80
2018-01-21T21:09:39.927Z,68.40
2018-01-21T21:12:07.710Z,68.20
2018-01-21T21:14:35.580Z,68.10
2018-01-21T21:17:03.557Z,69.40
2018-01-21T21:19:31.503Z,69.90
2018-01-21T21:21:59.416Z,69.20
2018-01-21T21:24:28.064Z,70.60
2018-01-21T21:26:56.067Z,70.60
2018-01-21T21:29:24.189Z,70.00
2018-01-21T21:31:52.047Z,70.20
2018-01-21T21:34:19.878Z,69.90
2018-01-21T21:36:48.525Z,69.70
2018-01-21T21:39:16.388Z,69.60
2018-01-21T21:41:44.258Z,69.90
2018-01-21T21:44:12.078Z,71.40
2018-01-21T21:46:40.714Z,70.30
2018-01-21T21:49:08.584Z,70.30
2018-01-21T21:51:36.648Z,71.80
2018-01-21T21:54:04.519Z,73.00
2018-01-21T21:56:32.381Z,74.40
2018-01-21T21:59:00.356Z,76.00
2018-01-21T22:01:28.520Z,77.00
2018-01-21T22:03:56.612Z,76.50
2018-01-21T22:06:24.575Z,76.50
2018-01-21T22:08:52.545Z,74.90
2018-01-21T22:11:20.417Z,74.80
2018-01-21T22:13:48.474Z,75.50
2018-01-21T22:16:16.363Z,74.60
2018-01-21T22:18:44.146Z,73.30
2018-01-21T22:21:12.084Z,73.60
2018-01-21T22:23:39.942Z,75.00
2018-01-21T22:26:07.709Z,75.90
2018-01-21T22:28:35.856Z,77.40
2018-01-21T22:31:03.862Z,76.00
2018-01-21T22:33:31.670Z,76.70
2018-01-21T22:35:59.800Z,76.90
2018-01-21T22:38:27.662Z,77.70
2018-01-21T22:40:55.500Z,76.90
2018-01-21T22:43:23.720Z,75.90
2018-01-21T22:45:51.580Z,77.60
2018-01-21T22:48:19.535Z,78.50
2018-01-21T22:50:47.424Z,76.80
2018-01-21T22:53:15.506Z,75.00
2018-01-21T22:55:43.297Z,73.60
2018-01-21T22:58:11.168Z,71.80
2018-01-21T23:00:39.139Z,70.90
2018-01-21T23:03:07.984Z,70.90
2018-01-21T23:05:35.830Z,72.90
2018-01-21T23:08:03.699Z,73.90
2018-01-21T23:10:31.602Z,74.20
2018-01-21T23:13:00.239Z,73.80
2018-01-21T23:15:28.019Z,73.80
2018-01-21T23:17:55.891Z,73.30
2018-01-21T23:20:35.557Z,74.30
2018-01-21T23:23:03.311Z,78.60
2018-01-21T23:25:31.979Z,83.30
2018-01-21T23:27:59.907Z,82.80
2018-01-21T23:30:27.814Z,84.70
2018-01-21T23:32:55.753Z,84.90
2018-01-21T23:35:23.660Z,85.40
2018-01-21T23:37:51.619Z,86.40
2018-01-21T23:40:19.500Z,86.60
2018-01-21T23:42:47.561Z,86.10
2018-01-21T23:45:15.530Z,85.50
2018-01-21T23:47:43.396Z,84.40
2018-01-21T23:50:11.469Z,83.50
2018-01-21T23:52:39.475Z,82.10
2018-01-21T23:55:08.140Z,79.10
2018-01-21T23:57:36.089Z,79.10
